AirNav   Pilot Hours Calculator
 
 1300 users online  

14VA Krens Farm Airport
Hillsboro, Virginia, USA

GOING TO HILLSBORO?


FAA INFORMATION EFFECTIVE 22 APRIL 2021

Location

FAA Identifier: 14VA
Lat/Long: 39-13-44.3680N 077-44-47.9750W
39-13.739467N 077-44.799583W
39.2289911,-77.7466597
(estimated)
Elevation: 790 ft. / 241 m (estimated)
Variation: 09W (1985)
From city: 2 miles NW of HILLSBORO, VA
Time zone: UTC -4 (UTC -5 during Standard Time)
Zip code: 20132

Airport Operations

Airport use: Private use. Permission required prior to landing
Activation date: 12/1983
Control tower: no
ARTCC: WASHINGTON CENTER
FSS: LEESBURG FLIGHT SERVICE STATION
Attendance: UNATNDD
Wind indicator: yes
Segmented circle: no

Airport Communications

WX AWOS-3 at JYO (13 nm SE): 125.225 (703-777-3781)
WX ASOS at MRB (15 nm NW): 119.925 (304-264-0988)
WX AWOS-3 at OKV (19 nm W): 124.85 (540-662-6970)

Nearby radio navigation aids

VOR radial/distance  VOR name  Freq  Var
MRBr160/10.5MARTINSBURG VORTAC112.1007W
FDKr245/(20.5)FREDERICK VOR109.0008W
AMLr332/22.0ARMEL VOR/DME113.5008W
HGRr177/(28.6)HAGERSTOWN VOR109.8007W
LDNr050/31.0LINDEN VORTAC114.3006W
CSNr015/35.7CASANOVA VORTAC116.3006W
EMIr254/39.0WESTMINSTER VORTAC117.9008W
DCAr313/39.8WASHINGTON VOR/DME111.0009W

 
NDB name  Hdg/Dist  Freq  Var  ID
GEORGETOWN311/34.132309WGTN --. - -.

Airport Services

Runway Information

Runway 1/19

Dimensions: 1900 x 50 ft. / 579 x 15 m
Surface: turf
RUNWAY 1  RUNWAY 19
Traffic pattern: leftleft

Airport Ownership and Management from official FAA records

Ownership: Privately-owned
Owner: WILLIAM F. KRENS
PO BOX 844
PURCELLVILLE, VA 22132
Phone 703-668-6937
Manager: WILLIAM F. KRENS
PO BOX 844
PURCELLVILLE, VA 22132
Phone 703-668-6937

Airport Operational Statistics

Aircraft based on the field: 2
Single engine airplanes: 1
Multi engine airplanes: 1
    

Additional Remarks

FOR CD CTC POTOMAC APCH AT 866-709-4993.

Instrument Procedures

There are no published instrument procedures at 14VA.

Some nearby airports with instrument procedures:

9VA5 - Bluegrass Heliport (12 nm SW)
KJYO - Leesburg Executive Airport (13 nm SE)
KMRB - Eastern WV Regional Airport/Shepherd Field (15 nm NW)
2VG2 - Upperville Airport (16 nm S)
KOKV - Winchester Regional Airport (19 nm W)
 
Loc | Ops | Rwys | IFR | FBO | Links
Com | Nav | Svcs | Stats | Notes
Area around 14VA (Krens Farm Airport)
 
Road maps at: MapQuest Bing Google
 
Aerial photo
No photo
 
Sectional chart

 
Airport distance calculator
Flying to Krens Farm Airport? Find the distance to fly.

From to 14VA

Sunrise and sunset
Times for 05-May-2021
 Local
(UTC-4)
 Zulu
(UTC)
Morning civil twilight05:4009:40
Sunrise06:0910:09
Sunset20:0700:07
Evening civil twilight20:3600:36

Current date and time
Zulu (UTC)  05-May-2021 21:44:33
Local (UTC-4)  05-May-2021 17:44:33
 
METAR
KJYO 
13nm SE 
052135Z AUTO 30019G26KT 10SM BKN045 OVC050 17/10 A2984 RMK AO2
KMRB 
15nm NW 
052053Z 30014KT 10SM BKN045 OVC050 17/08 A2983 RMK AO2 SLP098 T01720083 53031
KOKV 
20nm W 
052135Z AUTO 30014G21KT 10SM OVC040 17/08 A2986 RMK AO2
KFDK 
21nm NE 
052047Z 31016G23KT 10SM BKN048 BKN060 21/11 A2980
KIAD 
22nm SE 
052052Z 31021G32KT 10SM SCT048 BKN100 22/12 A2977 RMK AO2 PK WND 32032/2037 SLP078 ACSL W 60003 T02220117 51024
TAF
KMRB 
15nm NW 
052003Z 0520/0618 31015G22KT P6SM BKN040 FM060600 31010G20KT P6SM SCT050
NOTAMs
Click for the latest NOTAMs
NOTAMs are issued by the DoD/FAA and will open in a separate window not controlled by AirNav.

 

 
 

Would you like to see your business listed on this page?

 If your business provides an interesting product or service to pilots, flight crews, aircraft, or users of the Krens Farm Airport, you should consider listing it here.  To start the listing process, click on the button below
 
Add a business
 

Other Pages about Krens Farm Airport

Update a link
 
Copyright © AirNav, LLC. All rights reserved. Privacy Policy  Contact